Terminal Aerodrome Forecast
Issued by NWS Pueblo, CO

Home | Current Version | Previous Version | Text Only | Print | Product List | Glossary On
Versions: 1 2 3 4 5 6 7 8 9 10 11 12 13 14 15 16 17 18 19 20 21 22 23 24 25 26 27 28 29 30 31 32 33 34 35 36 37 38 39 40 41 42 43 44 45 46 47 48 49 50
153
FTUS45 KPUB 301914 AAB
TAFALS
TAF AMD
KALS 301914Z 3019/0118 VRB06KT P6SM FEW040 SCT070
     FM302000 08010KT P6SM FEW020 BKN140
     FM302200 12010G20KT P6SM VCSH BKN050
     FM010600 10010KT P6SM VCSH BKN035=

USA.gov is the U.S. government's official web portal to all federal, state and local government web resources and services.